Latest Coastal Weather Observations for Lake Macquarie - Cooranbong

IDN60701

Issued at 6:01 am EST Saturday 29 April 2017 (issued every 10 minutes, with the page automatically refreshed every 10 minutes)

About coastal observations | Map of coastal stations | Coastal observations for NSW | Marine services | Other Formats
Station Details ID: 061412 Name: LAKE MACQUARIE AWS Lat: -33.09 Lon: 151.46 Height: 6.0 m
Data from the previous 72 hours. | See also: Recent months at Lake Macquarie - Cooranbong
Date/Time
EST
Temp
°C
Wind Pressure Rain since
9am
mm
Weather Cloud Vis
km
Sea
Height
m
Swell
Dir  Spd
kts
Gust
kts
hPa Trend Height
m
Period
s
Dir
29/06:00am 5.9 CALM 0 0 1020.0 - - - - - - - - -
29/05:30am 6.1 CALM 0 0 1019.9 - 0.0 - - - - - - -
29/05:00am 6.4 CALM 0 0 1019.7 - 0.0 - - - - - - -
29/04:30am 6.6 CALM 0 0 1019.8 - 0.0 - - - - - - -
29/04:00am 6.7 CALM 0 0 1019.7 - 0.0 - - - - - - -
29/03:30am 6.8 CALM 0 0 1019.7 - 0.0 - - - - - - -
29/03:00am 7.2 CALM 0 0 1019.6 - 0.0 - - - - - - -
29/02:30am 7.3 CALM 0 0 1020.1 - 0.0 - - - - - - -
29/02:00am 7.5 CALM 0 0 1020.2 - 0.0 - - - - - - -
29/01:30am 7.8 CALM 0 0 1020.6 - 0.0 - - - - - - -
29/01:00am 7.9 CALM 0 0 1020.6 - 0.0 - - - - - - -
29/12:30am 8.3 CALM 0 0 1020.7 - 0.0 - - - - - - -
29/12:00am 8.3 CALM 0 0 1021.0 - 0.0 - - - - - - -
 
Date/Time
EST
Temp
°C
Wind Pressure Rain since
9am
mm
Weather Cloud Vis
km
Sea
Height
m
Swell
Dir  Spd
kts
Gust
kts
hPa Trend Height
m
Period
s
Dir
28/11:30pm 8.4 CALM 0 0 1021.2 - 0.0 - - - - - - -
28/11:00pm 8.8 CALM 0 0 1021.2 - 0.0 - - - - - - -
28/10:30pm 9.0 CALM 0 0 1021.6 - 0.0 - - - - - - -
28/10:00pm 9.3 CALM 0 0 1021.8 - 0.0 - - - - - - -
28/09:30pm 9.6 CALM 0 0 1021.8 - 0.0 - - - - - - -
28/09:00pm 9.8 CALM 0 0 1021.7 - 0.0 - - - - - - -
28/08:30pm 10.3 CALM 0 0 1021.5 - 0.0 - - - - - - -
28/08:00pm 10.6 CALM 0 0 1021.6 - 0.0 - - - - - - -
28/07:30pm 11.1 CALM 0 0 1021.6 - 0.0 - - - - - - -
28/07:00pm 11.5 CALM 0 0 1021.5 - 0.0 - - - - - - -
28/06:30pm 12.4 CALM 0 0 1021.3 - 0.0 - - - - - - -
28/06:00pm 13.6 CALM 0 0 1021.1 - 0.0 - - - - - - -
28/05:30pm 15.5 CALM 0 0 1020.8 - 0.0 - - - - - - -
28/05:00pm 17.1 SSE 2 5 1020.7 - 0.0 - - - - - - -
28/04:30pm 18.2 SSE 3 5 1020.3 - 0.0 - - - - - - -
28/04:00pm 19.0 SSE 3 4 1020.4 - 0.0 - - - - - - -
28/03:30pm 20.1 WSW 3 5 1020.4 - 0.0 - - - - - - -
28/03:00pm 20.2 SSW 3 6 1020.4 - 0.0 - - - - - - -
28/02:30pm 20.4 WSW 4 8 1020.4 - 0.0 - - - - - - -
28/02:00pm 20.7 WSW 3 7 1020.4 - 0.0 - - - - - - -
28/01:30pm 19.9 WSW 5 9 1020.5 - 0.0 - - - - - - -
28/01:00pm 19.9 SW 4 9 1020.9 - 0.0 - - - - - - -
28/12:30pm 20.0 S 3 6 1021.2 - 0.0 - - - - - - -
28/12:00pm 19.3 S 4 9 1021.8 - 0.0 - - - - - - -
28/11:30am 18.7 SW 5 9 1022.2 - 0.0 - - - - - - -
28/11:00am 18.3 SW 4 8 1022.4 - 0.0 - - - - - - -
28/10:30am 18.0 SW 5 9 1022.6 - 0.0 - - - - - - -
28/10:00am 17.3 WSW 5 7 1022.6 - 0.0 - - - - - - -
28/09:30am 16.5 SW 4 11 1022.6 - 0.0 - - - - - - -
28/09:00am 15.7 WSW 4 9 1022.6 - 0.0 - - - - - - -
28/08:30am 14.7 WSW 5 10 1022.4 - 0.0 - - - - - - -
28/08:00am 13.9 SW 3 5 1022.1 - 0.0 - - - - - - -
28/07:30am 13.1 SW 4 8 1021.7 - 0.0 - - - - - - -
28/07:00am 12.2 SW 2 5 1021.3 - 0.0 - - - - - - -
28/06:30am 12.3 WSW 3 6 1020.9 - 0.0 - - - - - - -
28/06:00am 12.5 WSW 3 8 1020.7 - 0.0 - - - - - - -
28/05:30am 12.8 SW 4 8 1020.5 - 0.0 - - - - - - -
28/05:00am 13.4 WSW 4 7 1020.2 - 0.0 - - - - - - -
28/04:30am 13.7 WSW 3 6 1019.9 - 0.0 - - - - - - -
28/04:00am 13.9 WSW 4 7 1019.7 - 0.0 - - - - - - -
28/03:30am 14.3 SW 4 9 1019.4 - 0.0 - - - - - - -
28/03:00am 14.8 SW 5 9 1019.3 - 0.0 - - - - - - -
28/02:30am 14.9 SW 4 10 1019.2 - 0.0 - - - - - - -
28/02:00am 14.7 SW 2 5 1019.2 - 0.0 - - - - - - -
28/01:30am 15.1 SW 5 16 1019.2 - 0.0 - - - - - - -
28/01:00am 15.3 WSW 4 11 1018.8 - 0.0 - - - - - - -
28/12:30am 15.3 SW 4 8 1018.6 - 0.0 - - - - - - -
28/12:00am 15.3 WSW 3 8 1018.6 - 0.0 - - - - - - -
 
Date/Time
EST
Temp
°C
Wind Pressure Rain since
9am
mm
Weather Cloud Vis
km
Sea
Height
m
Swell
Dir  Spd
kts
Gust
kts
hPa Trend Height
m
Period
s
Dir
27/11:30pm 15.1 SW 2 5 1018.5 - 0.0 - - - - - - -
27/11:00pm 15.1 WSW 4 7 1018.5 - 0.0 - - - - - - -
27/10:30pm 15.0 WSW 2 4 1018.7 - 0.0 - - - - - - -
27/10:00pm 14.4 WSW 2 4 1018.6 - 0.0 - - - - - - -
27/09:30pm 13.3 CALM 0 2 1018.3 - 0.0 - - - - - - -
27/09:00pm 13.5 CALM 0 0 1018.3 - 0.0 - - - - - - -
27/08:30pm 12.7 CALM 0 1 1018.3 - 0.0 - - - - - - -
27/08:00pm 11.8 WSW 1 2 1018.2 - 0.0 - - - - - - -
27/07:30pm 11.8 CALM 0 0 1018.0 - 0.0 - - - - - - -
27/07:00pm 12.2 CALM 0 0 1017.8 - 0.0 - - - - - - -
27/06:30pm 12.6 NW 1 3 1017.4 - 0.0 - - - - - - -
27/06:00pm 12.8 CALM 0 0 1016.9 - 0.0 - - - - - - -
27/05:30pm 14.9 WSW 1 2 1016.6 - 0.0 - - - - - - -
27/05:00pm 16.8 SSW 1 3 1016.2 - 0.0 - - - - - - -
27/04:30pm 17.4 S 2 7 1015.9 - 0.0 - - - - - - -
27/04:00pm 18.2 S 2 5 1015.6 - 0.0 - - - - - - -
27/03:30pm 18.9 SSW 3 8 1015.4 - 0.0 - - - - - - -
27/03:00pm 19.1 SW 4 7 1015.2 - 0.0 - - - - - - -
27/02:30pm 18.5 S 4 8 1014.9 - 0.0 - - - - - - -
27/02:00pm 18.8 SW 5 9 1014.7 - 0.0 - - - - - - -
27/01:30pm 18.6 WSW 4 7 1014.6 - 0.0 - - - - - - -
27/01:00pm 18.4 WSW 4 9 1014.8 - 0.0 - - - - - - -
27/12:30pm 18.1 SW 4 9 1015.0 - 0.0 - - - - - - -
27/12:00pm 17.8 WSW 5 8 1015.2 - 0.0 - - - - - - -
27/11:30am 17.7 W 6 10 1015.2 - 0.0 - - - - - - -
27/11:00am 17.0 SW 4 8 1015.5 - 0.0 - - - - - - -
27/10:30am 16.4 WSW 6 11 1015.5 - 0.0 - - - - - - -
27/10:00am 16.4 SW 7 14 1015.5 - 0.0 - - - - - - -
27/09:30am 15.8 SW 6 13 1015.5 - 0.0 - - - - - - -
27/09:00am 15.9 WSW 6 12 1015.3 - 2.6 - - - - - - -
27/08:30am 15.0 SW 3 8 1015.2 - 2.6 - - - - - - -
27/08:00am 13.9 WSW 5 10 1015.0 - 2.6 - - - - - - -
27/07:30am 13.0 WSW 3 5 1014.6 - 2.6 - - - - - - -
27/07:00am 12.6 WSW 1 3 1014.2 - 2.6 - - - - - - -
27/06:30am 12.6 SW 2 4 1013.8 - 2.6 - - - - - - -
27/06:00am 13.1 WSW 3 5 1013.4 - 2.6 - - - - - - -
27/05:30am 13.7 WSW 3 6 1013.1 - 2.6 - - - - - - -
27/05:00am 13.7 WSW 3 5 1012.6 - 2.6 - - - - - - -
27/04:30am 13.9 W 2 4 1012.2 - 2.6 - - - - - - -
27/04:00am 14.3 WSW 4 7 1011.7 - 2.6 - - - - - - -
27/03:30am 14.5 WSW 4 7 1011.6 - 2.6 - - - - - - -
27/03:00am 13.1 W 2 7 1011.6 - 2.6 - - - - - - -
27/02:30am 12.8 NNW 2 4 1011.6 - 2.6 - - - - - - -
27/02:00am 13.6 NW 2 3 1011.8 - 2.6 - - - - - - -
27/01:30am 13.7 WNW 2 4 1011.9 - 2.6 - - - - - - -
27/01:00am 13.6 NW 2 5 1011.8 - 2.6 - - - - - - -
27/12:30am 13.7 NW 3 6 1011.7 - 2.6 - - - - - - -
27/12:00am 13.7 NNW 3 5 1011.5 - 2.6 - - - - - - -
 
Date/Time
EST
Temp
°C
Wind Pressure Rain since
9am
mm
Weather Cloud Vis
km
Sea
Height
m
Swell
Dir  Spd
kts
Gust
kts
hPa Trend Height
m
Period
s
Dir
26/11:30pm 14.1 NW 3 6 1011.2 - 2.6 - - - - - - -
26/11:00pm 14.2 W 3 9 1011.0 - 2.6 - - - - - - -
26/10:30pm 13.8 W 3 7 1010.9 - 2.6 - - - - - - -
26/10:00pm 13.4 WNW 4 9 1010.7 - 2.6 - - - - - - -
26/09:30pm 13.3 WNW 5 12 1010.3 - 2.6 - - - - - - -
26/09:00pm 13.2 WNW 4 7 1010.0 - 2.6 - - - - - - -
26/08:30pm 13.6 WNW 5 10 1009.6 - 2.6 - - - - - - -
26/08:00pm 13.6 NW 4 8 1008.9 - 2.6 - - - - - - -
26/07:30pm 14.0 WNW 5 15 1008.2 - 2.6 - - - - - - -
26/07:00pm 13.9 WNW 8 17 1007.6 - 2.6 - - - - - - -
26/06:30pm 13.7 WNW 4 9 1007.6 - 2.6 - - - - - - -
26/06:00pm 13.7 NNW 4 9 1007.1 - 2.6 - - - - - - -
26/05:30pm 14.0 WNW 3 5 1006.5 - 2.6 - - - - - - -
26/05:00pm 14.2 W 7 13 1006.6 - 2.6 - - - - - - -
26/04:30pm 14.2 WNW 6 12 1006.3 - 2.6 - - - - - - -
26/04:00pm 14.2 WSW 8 16 1005.8 - 2.4 - - - - - - -
26/03:30pm 18.9 WSW 8 23 1004.5 - 0.0 - - - - - - -
26/03:00pm 21.1 SW 6 13 1003.0 - 0.0 - - - - - - -
26/02:30pm 24.7 W 6 11 1002.4 - 0.0 - - - - - - -
26/02:00pm 24.6 WNW 6 11 1002.5 - 0.0 - - - - - - -
26/01:30pm 24.3 WNW 7 15 1002.7 - 0.0 - - - - - - -
26/01:00pm 23.9 W 8 14 1003.2 - 0.0 - - - - - - -
26/12:30pm 23.9 NW 5 10 1003.9 - 0.0 - - - - - - -
26/12:00pm 23.1 W 5 9 1004.5 - 0.0 - - - - - - -
26/11:30am 23.6 NW 5 10 1005.2 - 0.0 - - - - - - -
26/11:00am 23.0 WNW 5 10 1005.7 - 0.0 - - - - - - -
26/10:30am 22.3 NW 4 9 1006.5 - 0.0 - - - - - - -
26/10:00am 22.0 NW 4 6 1006.8 - 0.0 - - - - - - -
26/09:30am 20.3 N 3 4 1007.5 - 0.0 - - - - - - -
26/09:00am 18.8 N 1 2 1007.6 - 3.4 - - - - - - -
26/08:30am 18.3 NNW 1 2 1007.9 - 3.4 - - - - - - -
26/08:00am 17.5 NW 2 5 1008.0 - 3.4 - - - - - - -
26/07:30am 16.8 CALM 0 0 1007.9 - 3.4 - - - - - - -
26/07:00am 15.1 NNW 1 2 1007.8 - 3.4 - - - - - - -
26/06:30am 14.6 NW 2 3 1007.9 - 3.4 - - - - - - -

Other Formats:

Comma delimited format used in spreadsheet applications
http://www.bom.gov.au/fwo/IDN60701/IDN60701.95767.axf

JavaScript Object Notation format (JSON) in row-major order
http://www.bom.gov.au/fwo/IDN60701/IDN60701.95767.json